Time;durP1;ratioP1;P1;durP2;ratioP2;P2;SDS_P1;SDS_P2;PMS_P1;PMS_P2;Temp;Humidity;BMP_temperature;BMP_pressure;BME280_temperature;BME280_humidity;BME280_pressure;Samples;Min_cycle;Max_cycle;Signal;HPM_P1;HPM_P2
2023/10/07 00:02:15;;;;;;;10.77;4.25;;;17.80;99.90;;;;;;5050899;28;20119;-69
2023/10/07 00:04:42;;;;;;;11.63;4.70;;;17.70;99.90;;;;;;5050167;28;20124;-69
2023/10/07 00:07:10;;;;;;;14.63;4.68;;;17.80;99.90;;;;;;5050644;28;20040;-69
2023/10/07 00:09:43;;;;;;;13.32;4.32;;;17.70;99.90;;;;;;5050677;28;20072;-69
2023/10/07 00:12:14;;;;;;;15.15;5.00;;;17.80;99.90;;;;;;5033654;28;20094;-69
2023/10/07 00:14:46;;;;;;;10.10;4.05;;;17.80;99.90;;;;;;5051236;28;20067;-69
2023/10/07 00:17:17;;;;;;;13.18;3.70;;;17.80;99.90;;;;;;5052067;28;20044;-69
2023/10/07 00:19:46;;;;;;;14.75;4.35;;;17.70;99.90;;;;;;5051141;28;20525;-69
2023/10/07 00:22:19;;;;;;;11.95;4.63;;;17.70;99.90;;;;;;5050494;28;20036;-69
2023/10/07 00:24:48;;;;;;;11.65;4.07;;;17.70;99.90;;;;;;5051385;28;20060;-69
2023/10/07 00:27:27;;;;;;;10.95;3.88;;;17.70;99.90;;;;;;5050516;28;20102;-69
2023/10/07 00:29:56;;;;;;;13.18;4.20;;;17.70;99.90;;;;;;5050876;28;20041;-69
2023/10/07 00:32:32;;;;;;;21.77;6.28;;;17.80;99.90;;;;;;5050093;28;20056;-69
2023/10/07 00:35:01;;;;;;;12.05;3.78;;;17.70;99.90;;;;;;5034297;28;20032;-69
2023/10/07 00:37:30;;;;;;;16.33;5.00;;;17.60;99.90;;;;;;5050653;28;20048;-69
2023/10/07 00:40:00;;;;;;;13.27;4.20;;;17.60;99.90;;;;;;5050174;28;20052;-69
2023/10/07 00:42:28;;;;;;;13.40;5.20;;;17.60;99.90;;;;;;5052358;28;21124;-69
2023/10/07 00:44:55;;;;;;;16.00;5.78;;;17.40;99.90;;;;;;5050534;28;20044;-69
2023/10/07 00:47:21;;;;;;;11.13;4.35;;;17.50;99.90;;;;;;5063792;28;20044;-69
2023/10/07 00:55:00;;;;;;;13.93;4.32;;;17.40;99.90;;;;;;5051136;28;20036;-69
2023/10/07 01:00:49;;;;;;;11.52;3.90;;;17.40;99.90;;;;;;5051416;28;20071;-69
2023/10/07 01:02:51;;;;;;;11.63;4.93;;;17.40;99.90;;;;;;5043815;28;20342;-69
2023/10/07 01:05:27;;;;;;;12.18;4.15;;;17.40;99.90;;;;;;5069965;28;20484;-69
2023/10/07 01:07:53;;;;;;;12.02;4.13;;;17.50;99.90;;;;;;5074757;28;20041;-71
2023/10/07 01:10:25;;;;;;;10.18;3.95;;;17.60;99.90;;;;;;5074637;28;20048;-70
2023/10/07 01:12:51;;;;;;;10.85;3.97;;;17.60;99.90;;;;;;5052171;28;20527;-70
2023/10/07 01:17:56;;;;;;;10.40;4.20;;;17.60;99.90;;;;;;5055116;28;20051;-70
2023/10/07 01:20:25;;;;;;;13.18;3.67;;;17.60;99.90;;;;;;5053727;28;20123;-70
2023/10/07 01:23:03;;;;;;;17.83;4.25;;;17.60;99.90;;;;;;5036310;28;20573;-70
2023/10/07 01:25:43;;;;;;;14.07;4.85;;;17.70;99.90;;;;;;5036829;28;20052;-70
2023/10/07 01:28:14;;;;;;;12.43;4.28;;;17.60;99.90;;;;;;5053040;28;20049;-70
2023/10/07 01:30:47;;;;;;;14.60;4.32;;;17.70;99.90;;;;;;5055492;28;20489;-70
2023/10/07 01:36:05;;;;;;;13.15;3.78;;;17.60;99.90;;;;;;5060818;28;20075;-70
2023/10/07 01:38:28;;;;;;;11.07;4.28;;;17.70;99.90;;;;;;5053843;28;20053;-69
2023/10/07 01:41:04;;;;;;;16.45;4.78;;;17.60;99.90;;;;;;5054883;28;20041;-70
2023/10/07 01:43:30;;;;;;;12.25;4.35;;;17.70;99.90;;;;;;5053864;28;20052;-70
2023/10/07 01:45:56;;;;;;;13.55;4.07;;;17.70;99.90;;;;;;5063286;28;20182;-70
2023/10/07 01:48:21;;;;;;;17.73;4.43;;;17.80;99.90;;;;;;5056637;28;20043;-70
2023/10/07 01:50:49;;;;;;;12.55;3.63;;;17.70;99.90;;;;;;5052459;28;20409;-70
2023/10/07 01:53:15;;;;;;;12.70;4.03;;;17.80;99.90;;;;;;5037146;28;20550;-70
2023/10/07 01:55:48;;;;;;;10.55;3.55;;;17.70;99.90;;;;;;5045535;28;20116;-70
2023/10/07 01:58:15;;;;;;;10.43;4.45;;;17.70;99.90;;;;;;5070619;28;20047;-70
2023/10/07 02:00:46;;;;;;;11.68;3.30;;;17.70;99.90;;;;;;5073263;28;20048;-69
2023/10/07 02:03:13;;;;;;;14.95;4.18;;;17.70;99.90;;;;;;5072033;28;20226;-70
2023/10/07 02:05:51;;;;;;;17.15;4.55;;;17.70;99.90;;;;;;5056227;28;20115;-69
2023/10/07 02:08:24;;;;;;;11.38;4.55;;;17.70;99.90;;;;;;5072698;28;20151;-70
2023/10/07 02:10:52;;;;;;;13.07;5.18;;;17.70;99.90;;;;;;5054714;28;20055;-69
2023/10/07 02:13:21;;;;;;;16.10;5.25;;;17.60;99.90;;;;;;5073951;28;20436;-70
2023/10/07 02:15:48;;;;;;;14.75;4.78;;;17.70;99.90;;;;;;5064514;28;20055;-69
2023/10/07 02:18:17;;;;;;;15.32;5.22;;;17.70;99.90;;;;;;5035501;28;20047;-70
2023/10/07 02:20:49;;;;;;;18.38;5.20;;;17.70;99.90;;;;;;5053914;28;20379;-70
2023/10/07 02:23:37;;;;;;;13.25;4.97;;;17.70;99.90;;;;;;5052648;28;20056;-70
2023/10/07 02:26:06;;;;;;;13.25;4.57;;;17.70;99.90;;;;;;5052063;28;20041;-69
2023/10/07 02:28:33;;;;;;;13.68;4.55;;;17.70;99.90;;;;;;5052540;28;20040;-69
2023/10/07 02:31:15;;;;;;;16.75;4.47;;;17.80;99.90;;;;;;5052608;28;20513;-69
2023/10/07 02:33:53;;;;;;;13.05;4.40;;;17.70;99.90;;;;;;5052470;28;20098;-70
2023/10/07 02:36:31;;;;;;;10.95;4.32;;;17.70;99.90;;;;;;5047612;28;20076;-70
2023/10/07 02:39:24;;;;;;;14.88;5.10;;;17.70;99.90;;;;;;5055343;28;20048;-69
2023/10/07 02:41:51;;;;;;;14.93;4.55;;;17.70;99.90;;;;;;5041538;28;20044;-70
2023/10/07 02:44:27;;;;;;;18.95;5.35;;;17.70;99.90;;;;;;5058645;28;20048;-70
2023/10/07 02:46:53;;;;;;;13.88;4.30;;;17.70;99.90;;;;;;5051505;28;20122;-69
2023/10/07 02:49:21;;;;;;;16.40;5.45;;;17.60;99.90;;;;;;5052149;28;20389;-69
2023/10/07 02:51:55;;;;;;;12.93;5.20;;;17.60;99.90;;;;;;5086071;28;20041;-70
2023/10/07 02:54:21;;;;;;;14.48;4.38;;;17.70;99.90;;;;;;5075820;28;20037;-70
2023/10/07 02:56:56;;;;;;;12.00;4.63;;;17.70;99.90;;;;;;5062772;28;20148;-70
2023/10/07 02:59:29;;;;;;;14.07;4.05;;;17.70;99.90;;;;;;5071450;28;20124;-70
2023/10/07 03:02:32;;;;;;;14.80;4.57;;;17.60;99.90;;;;;;5072334;28;20132;-69
2023/10/07 03:04:59;;;;;;;16.63;5.72;;;17.60;99.90;;;;;;5071223;28;20059;-69
2023/10/07 03:07:25;;;;;;;13.57;4.38;;;17.60;99.90;;;;;;5054319;28;20481;-69
2023/10/07 03:10:04;;;;;;;16.65;4.68;;;17.70;99.90;;;;;;5055330;28;20049;-69
2023/10/07 03:12:31;;;;;;;15.73;4.63;;;17.60;99.90;;;;;;5068742;28;20059;-68
2023/10/07 03:15:20;;;;;;;11.32;4.32;;;17.60;99.90;;;;;;5052399;28;20051;-68
2023/10/07 03:17:46;;;;;;;11.18;3.90;;;17.60;99.90;;;;;;5051666;28;20554;-69
2023/10/07 03:28:21;;;;;;;14.98;4.40;;;17.60;99.90;;;;;;5050941;28;20405;-69
2023/10/07 03:30:57;;;;;;;18.10;4.47;;;17.60;99.90;;;;;;5051202;28;20037;-69
2023/10/07 03:33:43;;;;;;;11.95;3.50;;;17.60;99.90;;;;;;5064561;28;20401;-69
2023/10/07 03:37:14;;;;;;;20.80;4.95;;;17.60;99.90;;;;;;5060608;28;20135;-69
2023/10/07 03:41:59;;;;;;;10.70;3.40;;;17.70;99.90;;;;;;5084084;28;20083;-69
2023/10/07 03:44:25;;;;;;;15.45;4.50;;;17.60;99.90;;;;;;5052293;28;20559;-71
2023/10/07 03:46:54;;;;;;;15.35;4.43;;;17.70;99.90;;;;;;5052439;28;20037;-70
2023/10/07 03:49:21;;;;;;;14.43;4.60;;;17.70;99.90;;;;;;5051415;28;20045;-68
2023/10/07 03:52:12;;;;;;;14.77;4.45;;;17.70;99.90;;;;;;5051058;28;20049;-70
2023/10/07 03:54:42;;;;;;;10.65;4.43;;;17.60;99.90;;;;;;5052333;28;20041;-69
2023/10/07 03:57:09;;;;;;;16.58;5.03;;;17.70;99.90;;;;;;5068991;28;20397;-69
2023/10/07 03:59:36;;;;;;;13.18;3.85;;;17.70;99.90;;;;;;5072349;28;20036;-69
2023/10/07 04:04:51;;;;;;;16.30;4.82;;;17.60;99.90;;;;;;5061289;28;20190;-69
2023/10/07 04:07:17;;;;;;;13.63;4.00;;;17.60;99.90;;;;;;5051524;28;20127;-70
2023/10/07 04:09:43;;;;;;;15.50;4.32;;;17.60;99.90;;;;;;5057545;28;20037;-69
2023/10/07 04:12:08;;;;;;;16.83;5.60;;;17.50;99.90;;;;;;5070639;28;20094;-69
2023/10/07 04:14:35;;;;;;;11.02;4.30;;;17.60;99.90;;;;;;5071991;28;20036;-70
2023/10/07 04:17:11;;;;;;;12.13;3.88;;;17.60;99.90;;;;;;5069810;28;20114;-70
2023/10/07 04:19:52;;;;;;;12.10;3.95;;;17.60;99.90;;;;;;5071021;28;20044;-70
2023/10/07 04:22:18;;;;;;;12.05;4.47;;;17.50;99.90;;;;;;5071064;28;20053;-70
2023/10/07 04:24:44;;;;;;;10.98;4.32;;;17.50;99.90;;;;;;5053122;28;20077;-70
2023/10/07 04:27:18;;;;;;;15.52;4.22;;;17.60;99.90;;;;;;5070640;28;20047;-69
2023/10/07 04:29:44;;;;;;;13.18;4.38;;;17.60;99.90;;;;;;5071507;28;20087;-69
2023/10/07 04:32:13;;;;;;;10.20;3.70;;;17.60;99.90;;;;;;5053276;28;20113;-69
2023/10/07 04:35:00;;;;;;;13.65;5.55;;;17.60;99.90;;;;;;5072616;28;20494;-69
2023/10/07 04:37:38;;;;;;;9.65;4.03;;;17.50;99.90;;;;;;5069069;28;20045;-70
2023/10/07 04:42:38;;;;;;;15.20;4.78;;;17.50;99.90;;;;;;5067936;28;20044;-69
2023/10/07 04:45:22;;;;;;;15.30;5.22;;;17.50;99.90;;;;;;5058353;28;20577;-69
2023/10/07 04:47:57;;;;;;;21.63;5.45;;;17.60;99.90;;;;;;5068209;28;20078;-69
2023/10/07 04:50:33;;;;;;;11.55;4.57;;;17.50;99.90;;;;;;5073822;28;20127;-69
2023/10/07 04:53:05;;;;;;;13.30;4.13;;;17.40;99.90;;;;;;5075421;28;20051;-69
2023/10/07 04:55:32;;;;;;;19.85;5.07;;;17.50;99.90;;;;;;5073695;28;20041;-69
2023/10/07 04:57:59;;;;;;;12.05;4.22;;;17.50;99.90;;;;;;5054579;28;20075;-70
2023/10/07 05:03:03;;;;;;;14.50;4.07;;;17.40;99.90;;;;;;5054729;28;20064;-70
2023/10/07 05:05:35;;;;;;;13.73;4.20;;;17.50;99.90;;;;;;5055193;28;20682;-70
2023/10/07 05:08:22;;;;;;;12.50;3.67;;;17.40;99.90;;;;;;5056851;28;20072;-69
2023/10/07 05:10:56;;;;;;;13.27;4.20;;;17.40;99.90;;;;;;5073829;28;20090;-70
2023/10/07 05:13:24;;;;;;;10.63;3.75;;;17.40;99.90;;;;;;5074593;28;20115;-70
2023/10/07 05:15:49;;;;;;;13.73;4.05;;;17.40;99.90;;;;;;5102635;28;20048;-70
2023/10/07 05:18:16;;;;;;;14.82;4.13;;;17.40;99.90;;;;;;5053944;28;20103;-70
2023/10/07 05:20:46;;;;;;;12.90;4.18;;;17.40;99.90;;;;;;5053152;28;20382;-70
2023/10/07 05:23:17;;;;;;;17.13;3.88;;;17.40;99.90;;;;;;5053839;28;20090;-70
2023/10/07 05:25:49;;;;;;;12.85;3.50;;;17.40;99.90;;;;;;5060562;28;20063;-70
2023/10/07 05:28:20;;;;;;;12.10;3.95;;;17.40;99.90;;;;;;5040059;28;20041;-69
2023/10/07 05:30:50;;;;;;;12.40;3.72;;;17.40;99.90;;;;;;5053596;28;20036;-70
2023/10/07 05:33:26;;;;;;;15.57;3.95;;;17.30;99.90;;;;;;5053815;28;20393;-70
2023/10/07 05:35:58;;;;;;;10.43;3.35;;;17.40;99.90;;;;;;5058737;28;20047;-70
2023/10/07 05:38:25;;;;;;;13.30;3.63;;;17.30;99.90;;;;;;5069525;28;20048;-70
2023/10/07 05:40:51;;;;;;;12.10;3.95;;;17.30;99.90;;;;;;5053761;28;20518;-70
2023/10/07 05:43:17;;;;;;;10.43;3.55;;;17.20;99.90;;;;;;5052680;28;20049;-70
2023/10/07 05:45:45;;;;;;;15.48;4.15;;;17.30;99.90;;;;;;5054713;28;20037;-69
2023/10/07 05:48:11;;;;;;;12.38;3.97;;;17.30;99.90;;;;;;5052971;28;20072;-69
2023/10/07 05:50:38;;;;;;;15.38;3.83;;;17.20;99.90;;;;;;5063109;28;20059;-69
2023/10/07 05:53:05;;;;;;;12.73;3.83;;;17.20;99.90;;;;;;5073822;28;20052;-69
2023/10/07 05:55:33;;;;;;;17.48;4.18;;;17.10;99.90;;;;;;5072352;28;20044;-59
2023/10/07 05:58:02;;;;;;;14.15;3.78;;;17.20;99.90;;;;;;5074745;28;20076;-59
2023/10/07 06:00:36;;;;;;;12.40;4.15;;;17.10;99.90;;;;;;5074013;28;20482;-59
2023/10/07 06:03:06;;;;;;;15.77;5.28;;;17.00;99.90;;;;;;5055907;28;20041;-59
2023/10/07 06:05:33;;;;;;;12.02;4.25;;;17.00;99.90;;;;;;5056360;28;20039;-59
2023/10/07 06:07:59;;;;;;;15.20;3.97;;;17.10;99.90;;;;;;5073307;28;20040;-59
2023/10/07 06:10:25;;;;;;;11.75;4.35;;;17.20;99.90;;;;;;5071802;28;20166;-59
2023/10/07 06:12:54;;;;;;;11.77;3.28;;;17.10;99.90;;;;;;5056549;28;20036;-59
2023/10/07 06:15:20;;;;;;;15.10;4.55;;;17.10;99.90;;;;;;5072980;28;20040;-59
2023/10/07 06:17:46;;;;;;;13.25;4.25;;;17.10;99.90;;;;;;5071987;28;20052;-59
2023/10/07 06:20:15;;;;;;;17.08;4.50;;;17.10;99.90;;;;;;5071998;28;20041;-59
2023/10/07 06:22:48;;;;;;;14.70;4.55;;;17.10;99.90;;;;;;5072491;28;20578;-59
2023/10/07 06:25:17;;;;;;;14.43;4.95;;;17.00;99.90;;;;;;5071963;28;20040;-59
2023/10/07 06:27:45;;;;;;;11.57;4.28;;;17.00;99.90;;;;;;5073834;28;20468;-59
2023/10/07 06:30:16;;;;;;;14.70;3.92;;;17.00;99.90;;;;;;5055627;28;20116;-59
2023/10/07 06:32:45;;;;;;;11.48;3.30;;;17.10;99.90;;;;;;5052136;28;20048;-59
2023/10/07 06:35:21;;;;;;;12.05;3.90;;;17.10;99.90;;;;;;5035721;28;20095;-59
2023/10/07 06:37:47;;;;;;;13.15;3.85;;;17.00;99.90;;;;;;5054759;28;20486;-59
2023/10/07 06:43:14;;;;;;;12.23;4.13;;;17.00;99.90;;;;;;5060167;28;20397;-59
2023/10/07 06:45:44;;;;;;;10.98;4.13;;;17.00;99.90;;;;;;5071550;28;20045;-59
2023/10/07 06:48:11;;;;;;;11.45;4.10;;;17.00;99.90;;;;;;5072308;28;20044;-59
2023/10/07 06:50:41;;;;;;;16.65;4.35;;;17.10;99.90;;;;;;5062173;28;20132;-59
2023/10/07 06:53:18;;;;;;;11.27;4.20;;;17.00;99.90;;;;;;5051399;28;20052;-59
2023/10/07 06:55:47;;;;;;;12.73;4.10;;;17.00;99.90;;;;;;5053440;28;20048;-59
2023/10/07 06:58:14;;;;;;;14.60;4.50;;;17.10;99.90;;;;;;5051353;28;20049;-59
2023/10/07 07:00:47;;;;;;;9.57;4.00;;;17.10;99.90;;;;;;5054349;28;20123;-59
2023/10/07 07:03:19;;;;;;;13.40;3.70;;;17.00;99.90;;;;;;5068951;28;20410;-59
2023/10/07 07:05:46;;;;;;;11.25;4.00;;;17.10;99.90;;;;;;5052866;28;20045;-59
2023/10/07 07:08:12;;;;;;;16.83;4.28;;;17.10;99.90;;;;;;5055232;28;20090;-59
2023/10/07 07:10:40;;;;;;;15.35;3.67;;;17.20;99.90;;;;;;5070458;28;20036;-59
2023/10/07 07:13:13;;;;;;;12.38;3.72;;;17.30;99.90;;;;;;5064609;28;20041;-59
2023/10/07 07:15:41;;;;;;;12.48;3.90;;;17.20;99.90;;;;;;5064992;28;20054;-59
2023/10/07 07:18:19;;;;;;;9.48;3.38;;;17.30;99.90;;;;;;5064910;28;20124;-59
2023/10/07 07:20:53;;;;;;;10.30;3.35;;;17.20;99.90;;;;;;5064153;28;20061;-59
2023/10/07 07:23:21;;;;;;;15.07;4.45;;;17.30;99.90;;;;;;5033067;28;20041;-59
2023/10/07 07:26:30;;;;;;;14.52;3.80;;;17.40;99.90;;;;;;5044806;28;20044;-60
2023/10/07 07:28:43;;;;;;;13.80;3.70;;;17.40;99.90;;;;;;5042387;28;20048;-60
2023/10/07 07:31:11;;;;;;;11.82;4.45;;;17.50;99.90;;;;;;5034763;28;20043;-60
2023/10/07 07:33:38;;;;;;;13.07;4.03;;;17.40;99.90;;;;;;5051140;28;20471;-59
2023/10/07 07:38:51;;;;;;;13.43;3.42;;;17.50;99.90;;;;;;5079077;28;20052;-60
2023/10/07 07:41:26;;;;;;;15.80;4.28;;;17.60;99.90;;;;;;5066764;28;20109;-59
2023/10/07 07:43:58;;;;;;;22.00;4.30;;;17.50;99.90;;;;;;5059886;28;20047;-59
2023/10/07 07:46:39;;;;;;;12.40;4.63;;;17.60;99.90;;;;;;5058022;28;20079;-60
2023/10/07 07:49:06;;;;;;;10.27;4.78;;;17.60;99.90;;;;;;5047349;28;20406;-60
2023/10/07 07:51:37;;;;;;;13.57;4.13;;;17.60;99.90;;;;;;5032341;28;20107;-61
2023/10/07 07:54:05;;;;;;;13.68;3.88;;;17.60;99.90;;;;;;5065370;28;20128;-60
2023/10/07 07:56:32;;;;;;;11.18;4.25;;;17.70;99.90;;;;;;5032574;28;20102;-60
2023/10/07 07:58:57;;;;;;;14.45;4.95;;;17.70;99.90;;;;;;5059502;28;20076;-60
2023/10/07 08:01:28;;;;;;;12.90;4.45;;;17.70;99.90;;;;;;5066382;28;20205;-60
2023/10/07 08:03:55;;;;;;;13.50;4.47;;;17.70;99.90;;;;;;5080983;28;20565;-70
2023/10/07 08:06:21;;;;;;;13.55;4.72;;;17.70;99.90;;;;;;5049838;28;20154;-70
2023/10/07 08:08:49;;;;;;;14.90;4.88;;;17.70;99.90;;;;;;5056904;28;20474;-70
2023/10/07 08:11:17;;;;;;;16.95;5.15;;;17.70;99.90;;;;;;5051486;28;20097;-70
2023/10/07 08:13:48;;;;;;;12.88;4.28;;;17.70;99.90;;;;;;5057690;28;20056;-70
2023/10/07 08:16:19;;;;;;;14.43;4.50;;;17.70;99.90;;;;;;5048850;28;20111;-70
2023/10/07 08:18:46;;;;;;;13.10;4.75;;;17.70;99.90;;;;;;5048465;28;20079;-69
2023/10/07 08:21:16;;;;;;;14.40;4.35;;;17.80;99.90;;;;;;5064905;28;20106;-70
2023/10/07 08:23:44;;;;;;;18.98;4.80;;;17.80;99.90;;;;;;5063627;28;20040;-70
2023/10/07 08:26:12;;;;;;;13.98;5.07;;;17.70;99.90;;;;;;5046147;28;20090;-70
2023/10/07 08:28:45;;;;;;;20.55;5.50;;;17.70;99.90;;;;;;5049069;28;20048;-70
2023/10/07 08:31:19;;;;;;;11.43;4.55;;;17.80;99.90;;;;;;5079741;28;20052;-71
2023/10/07 08:33:53;;;;;;;12.63;4.20;;;17.80;99.90;;;;;;5047993;28;20057;-70
2023/10/07 08:36:19;;;;;;;16.77;5.32;;;17.90;99.90;;;;;;5048413;28;20052;-70
2023/10/07 08:38:45;;;;;;;16.65;4.40;;;17.80;99.90;;;;;;5055159;28;20370;-70
2023/10/07 08:41:16;;;;;;;17.20;4.32;;;17.80;99.90;;;;;;5031459;28;20040;-70
2023/10/07 08:43:45;;;;;;;12.95;3.88;;;17.80;99.90;;;;;;5047863;28;20041;-70
2023/10/07 08:46:16;;;;;;;14.35;4.05;;;17.80;99.90;;;;;;5066589;28;20063;-70
2023/10/07 08:48:49;;;;;;;15.88;4.68;;;17.80;99.90;;;;;;5037262;28;20072;-70
2023/10/07 08:51:25;;;;;;;13.95;4.45;;;17.80;99.90;;;;;;5061291;28;20089;-70
2023/10/07 08:53:57;;;;;;;12.88;3.65;;;17.80;99.90;;;;;;5048179;28;20075;-70
2023/10/07 08:56:27;;;;;;;12.35;4.63;;;17.90;99.90;;;;;;5041158;28;20041;-70
2023/10/07 08:58:54;;;;;;;15.18;4.85;;;17.90;99.90;;;;;;5043897;28;20119;-70
2023/10/07 09:01:24;;;;;;;15.20;5.32;;;17.90;99.90;;;;;;5055241;28;20045;-70
2023/10/07 09:03:52;;;;;;;15.05;4.82;;;18.00;99.90;;;;;;5047561;28;20045;-70
2023/10/07 09:06:19;;;;;;;10.82;4.25;;;18.10;99.90;;;;;;5047154;28;20052;-72
2023/10/07 09:08:45;;;;;;;18.35;5.65;;;18.10;99.90;;;;;;5056485;28;20041;-74
2023/10/07 09:11:18;;;;;;;13.77;4.25;;;18.10;99.90;;;;;;5064026;28;20033;-74
2023/10/07 09:13:45;;;;;;;14.38;5.13;;;18.20;99.90;;;;;;5060772;28;20390;-73
2023/10/07 09:16:12;;;;;;;16.80;4.80;;;18.20;99.90;;;;;;5047591;28;20075;-75
2023/10/07 09:18:41;;;;;;;11.65;4.60;;;18.20;99.90;;;;;;5069351;28;20424;-71
2023/10/07 09:21:18;;;;;;;14.88;4.68;;;18.20;99.90;;;;;;5068990;28;20048;-70
2023/10/07 09:23:47;;;;;;;16.13;4.82;;;18.20;99.90;;;;;;5071721;28;20502;-73
2023/10/07 09:26:30;;;;;;;11.75;4.55;;;18.20;99.90;;;;;;5061022;28;20056;-74
2023/10/07 09:28:59;;;;;;;14.40;4.63;;;18.10;99.90;;;;;;5047466;28;20048;-74
2023/10/07 09:31:30;;;;;;;11.65;4.97;;;18.10;99.90;;;;;;5056540;28;20041;-73
2023/10/07 09:34:09;;;;;;;13.90;4.53;;;18.20;99.90;;;;;;5051059;28;20048;-73
2023/10/07 09:36:40;;;;;;;17.65;6.07;;;18.20;99.90;;;;;;5061216;28;20485;-73
2023/10/07 09:41:38;;;;;;;12.95;4.47;;;18.20;99.90;;;;;;5050876;28;20057;-73
2023/10/07 09:44:13;;;;;;;13.68;5.25;;;18.20;99.90;;;;;;5060243;28;20473;-73
2023/10/07 09:46:42;;;;;;;15.85;4.53;;;18.20;99.90;;;;;;5056118;28;20041;-72
2023/10/07 09:49:07;;;;;;;11.75;5.32;;;18.20;99.90;;;;;;5070195;28;20044;-73
2023/10/07 09:51:44;;;;;;;11.90;4.85;;;18.20;99.90;;;;;;5061192;28;20468;-73
2023/10/07 09:54:47;;;;;;;13.68;4.97;;;18.20;99.90;;;;;;5050923;28;20580;-73
2023/10/07 09:57:29;;;;;;;14.40;4.32;;;18.20;99.90;;;;;;5057523;28;20044;-73
2023/10/07 10:00:43;;;;;;;11.60;4.95;;;18.20;99.90;;;;;;5059872;28;20044;-72
2023/10/07 10:03:39;;;;;;;13.52;4.45;;;18.20;99.90;;;;;;5050131;28;20394;-72
2023/10/07 10:06:07;;;;;;;17.52;5.38;;;18.20;99.90;;;;;;5050731;28;20041;-72
2023/10/07 10:08:57;;;;;;;13.32;5.43;;;18.30;99.90;;;;;;5054841;28;20041;-72
2023/10/07 10:16:45;;;;;;;11.48;4.30;;;18.30;99.90;;;;;;5051864;28;20135;-72
2023/10/07 10:19:25;;;;;;;13.40;4.55;;;18.30;99.90;;;;;;5066035;28;20124;-70
2023/10/07 10:21:52;;;;;;;13.00;5.03;;;18.30;99.90;;;;;;5053452;28;20053;-72
2023/10/07 10:24:23;;;;;;;12.18;4.60;;;18.30;99.90;;;;;;5055134;28;20106;-72
2023/10/07 10:26:50;;;;;;;15.63;5.03;;;18.30;99.90;;;;;;5072988;28;20139;-72
2023/10/07 10:29:25;;;;;;;16.58;5.13;;;18.30;99.90;;;;;;5072795;28;20043;-72
2023/10/07 10:31:58;;;;;;;14.43;4.60;;;18.30;99.90;;;;;;5071594;28;20052;-72
2023/10/07 10:34:26;;;;;;;9.88;4.30;;;18.30;99.90;;;;;;5072432;28;20040;-72
2023/10/07 10:36:55;;;;;;;12.50;5.47;;;18.30;99.90;;;;;;5073051;28;20086;-72
2023/10/07 10:39:26;;;;;;;11.52;4.45;;;18.30;99.90;;;;;;5073898;28;20036;-72
2023/10/07 10:41:55;;;;;;;14.77;5.07;;;18.40;99.90;;;;;;5072664;28;20119;-71
2023/10/07 10:44:21;;;;;;;14.20;4.45;;;18.40;99.90;;;;;;5072979;28;20040;-72
2023/10/07 10:46:49;;;;;;;14.18;4.63;;;18.40;99.90;;;;;;5065344;28;20052;-72
2023/10/07 10:49:17;;;;;;;11.00;4.43;;;18.40;99.90;;;;;;5035808;28;20055;-71
2023/10/07 10:51:48;;;;;;;13.52;4.22;;;18.40;99.90;;;;;;5051368;28;20048;-71
2023/10/07 10:54:21;;;;;;;12.68;4.65;;;18.40;99.90;;;;;;5068695;28;20558;-72
2023/10/07 10:56:50;;;;;;;22.23;6.28;;;18.50;99.90;;;;;;5052943;28;20163;-72
2023/10/07 10:59:22;;;;;;;15.63;5.18;;;18.50;99.90;;;;;;5064600;28;20045;-72
2023/10/07 11:01:49;;;;;;;14.05;4.20;;;18.50;99.90;;;;;;5073022;28;20048;-72
2023/10/07 11:04:19;;;;;;;12.15;4.72;;;18.50;99.90;;;;;;5066621;28;20045;-72
2023/10/07 11:06:50;;;;;;;13.80;4.60;;;18.60;99.90;;;;;;5059115;28;20037;-60
2023/10/07 11:09:18;;;;;;;16.27;6.75;;;18.60;99.90;;;;;;5071847;28;20044;-60
2023/10/07 11:11:48;;;;;;;15.70;5.15;;;18.60;99.90;;;;;;5040683;28;20120;-60
2023/10/07 11:14:20;;;;;;;16.75;6.15;;;18.50;99.90;;;;;;5051594;28;20501;-60
2023/10/07 11:16:46;;;;;;;17.33;5.35;;;18.50;99.90;;;;;;5034938;28;20045;-59
2023/10/07 11:19:14;;;;;;;11.95;4.75;;;18.40;99.90;;;;;;5050716;28;20485;-60
2023/10/07 11:21:45;;;;;;;11.05;4.72;;;18.40;99.90;;;;;;5051686;28;20084;-60
2023/10/07 11:24:34;;;;;;;16.77;5.70;;;18.40;99.90;;;;;;5067942;28;20037;-60
2023/10/07 11:27:02;;;;;;;13.00;4.82;;;18.40;99.90;;;;;;5052392;28;20045;-60
2023/10/07 11:29:32;;;;;;;14.02;4.53;;;18.40;99.90;;;;;;5034694;28;20106;-59
2023/10/07 11:32:06;;;;;;;13.57;4.45;;;18.40;99.90;;;;;;5051388;28;20051;-60
2023/10/07 11:34:37;;;;;;;15.57;4.90;;;18.50;99.90;;;;;;5068291;28;20049;-60
2023/10/07 11:37:09;;;;;;;15.23;5.03;;;18.40;99.90;;;;;;5062878;28;20502;-60
2023/10/07 11:39:47;;;;;;;14.68;5.28;;;18.50;99.90;;;;;;5050081;28;20028;-60
2023/10/07 11:42:18;;;;;;;14.63;4.88;;;18.50;99.90;;;;;;5070984;28;20041;-60
2023/10/07 11:44:49;;;;;;;13.60;5.10;;;18.50;99.90;;;;;;5070706;28;20506;-60
2023/10/07 11:47:16;;;;;;;14.07;5.22;;;18.50;99.90;;;;;;5070384;28;20071;-60
2023/10/07 11:49:48;;;;;;;14.25;4.35;;;18.50;99.90;;;;;;5070365;28;20056;-60
2023/10/07 11:52:19;;;;;;;15.00;4.68;;;18.50;99.90;;;;;;5054723;28;20354;-60
2023/10/07 11:54:48;;;;;;;13.32;4.93;;;18.50;99.90;;;;;;5070354;28;20047;-60
2023/10/07 11:57:15;;;;;;;11.95;4.22;;;18.50;99.90;;;;;;5064464;28;20078;-60
2023/10/07 11:59:41;;;;;;;12.10;4.10;;;18.40;99.90;;;;;;5052233;28;20428;-60
2023/10/07 12:02:11;;;;;;;13.45;5.28;;;18.40;99.90;;;;;;5050802;28;20045;-60
2023/10/07 12:04:54;;;;;;;16.40;5.10;;;18.40;99.90;;;;;;5050952;28;20138;-60
2023/10/07 12:07:20;;;;;;;12.82;4.35;;;18.40;99.90;;;;;;5070397;28;20040;-60
2023/10/07 12:09:50;;;;;;;14.85;5.72;;;18.30;99.90;;;;;;5070014;28;20508;-60
2023/10/07 12:12:17;;;;;;;13.95;4.82;;;18.20;99.90;;;;;;5070744;28;20222;-60
2023/10/07 12:14:43;;;;;;;11.55;4.88;;;18.20;99.90;;;;;;5071171;28;20364;-60
2023/10/07 12:17:08;;;;;;;11.57;4.68;;;18.20;99.90;;;;;;5070196;28;20044;-61
2023/10/07 12:19:36;;;;;;;17.33;5.55;;;18.20;99.90;;;;;;5054309;28;20048;-60
2023/10/07 12:22:05;;;;;;;14.82;4.55;;;18.30;99.90;;;;;;5071535;28;20044;-60
2023/10/07 12:24:32;;;;;;;12.07;4.30;;;18.30;99.90;;;;;;5070239;28;20059;-61
2023/10/07 12:26:59;;;;;;;11.40;4.15;;;18.40;99.90;;;;;;5070946;28;20572;-61
2023/10/07 12:29:26;;;;;;;15.10;4.90;;;18.40;99.90;;;;;;5070444;28;20044;-61
2023/10/07 12:31:52;;;;;;;12.55;4.60;;;18.40;99.90;;;;;;5070636;28;20120;-61
2023/10/07 12:34:18;;;;;;;13.75;5.10;;;18.40;99.90;;;;;;5070677;28;20127;-61
2023/10/07 12:36:44;;;;;;;18.00;5.57;;;18.40;99.90;;;;;;5056140;28;20045;-60
2023/10/07 12:39:10;;;;;;;10.98;3.97;;;18.40;99.90;;;;;;5051751;28;20044;-61
2023/10/07 12:41:43;;;;;;;13.35;5.00;;;18.30;99.90;;;;;;5050957;28;20052;-61
2023/10/07 12:44:09;;;;;;;11.93;4.40;;;18.30;99.90;;;;;;5051082;28;20060;-61
2023/10/07 12:46:39;;;;;;;10.35;4.20;;;18.30;99.90;;;;;;5050652;28;20539;-60
2023/10/07 12:49:10;;;;;;;14.05;4.88;;;18.30;99.90;;;;;;5051714;28;20461;-61
2023/10/07 12:51:45;;;;;;;11.52;4.43;;;18.30;99.90;;;;;;5049474;28;20475;-61
2023/10/07 12:54:11;;;;;;;14.63;5.40;;;18.30;99.90;;;;;;5050220;28;20103;-61
2023/10/07 12:56:37;;;;;;;12.13;4.90;;;18.20;99.90;;;;;;5052960;28;20041;-61
2023/10/07 12:59:24;;;;;;;11.98;4.90;;;18.20;99.90;;;;;;5087591;28;20037;-60
2023/10/07 13:01:51;;;;;;;16.58;4.68;;;18.20;99.90;;;;;;5035614;28;20390;-60
2023/10/07 13:04:25;;;;;;;15.05;4.43;;;18.10;99.90;;;;;;5033386;28;20069;-61
2023/10/07 13:07:05;;;;;;;18.65;6.90;;;18.10;99.90;;;;;;5048913;28;20094;-60
2023/10/07 13:09:31;;;;;;;12.07;5.07;;;18.10;99.90;;;;;;5054051;28;20048;-60
2023/10/07 13:11:58;;;;;;;17.75;5.25;;;18.00;99.90;;;;;;5053631;28;20115;-60
2023/10/07 13:14:27;;;;;;;11.80;4.68;;;18.00;99.90;;;;;;5054568;28;20045;-60
2023/10/07 13:16:56;;;;;;;13.73;4.93;;;18.00;99.90;;;;;;5087011;28;20070;-60
2023/10/07 13:19:35;;;;;;;20.95;4.75;;;17.90;99.90;;;;;;5087700;28;20236;-60
2023/10/07 13:22:05;;;;;;;11.27;4.80;;;18.00;99.90;;;;;;5059569;28;20048;-60
2023/10/07 13:24:31;;;;;;;10.90;4.63;;;17.90;99.90;;;;;;5041406;28;20044;-59
2023/10/07 13:26:57;;;;;;;12.77;4.90;;;17.90;99.90;;;;;;5044201;28;20138;-60
2023/10/07 13:29:23;;;;;;;11.40;4.85;;;17.90;99.90;;;;;;5057352;28;20486;-60
2023/10/07 13:31:52;;;;;;;15.98;5.85;;;17.90;99.90;;;;;;5053639;28;20505;-59
2023/10/07 13:34:19;;;;;;;15.23;5.22;;;17.90;99.90;;;;;;5052762;28;20049;-60
2023/10/07 13:36:45;;;;;;;15.25;4.85;;;17.90;99.90;;;;;;5053743;28;20114;-60
2023/10/07 13:39:16;;;;;;;11.55;4.80;;;17.90;99.90;;;;;;5053719;28;20051;-60
2023/10/07 13:41:47;;;;;;;13.70;5.05;;;17.90;99.90;;;;;;5070465;28;20040;-60
2023/10/07 13:44:14;;;;;;;22.27;5.22;;;17.90;99.90;;;;;;5066749;28;20118;-60